EZY72LD EGCC-LTCG
Flight info
| Callsign | EZY72LD |
|---|---|
| Flight time | 4h 9m |
| Altitude | 33000 |
| Route | SONEX L975 DESIG L603 LAMSO/N0454F350 DCT HMM/N0449F370 DCT WRB DCT KATCE DCT VEXIL DCT PEPIK DCT UVERA DCT BUDOP DCT ARTAT UP975 ERMUP UT641 ABSAX UN743 GAKSU UT310 SIN UN644 KARDE UL851 TOLUN |
| Aircraft | A320/M-SDE3FGHIRWY/LB1 |
Departure
| Time | 2026-04-26 21:28 |
|---|---|
| Airport | Manchester Airport (EGCC) |
Arrival
| Time | 2026-04-27 01:37 |
|---|---|
| Airport | Trabzon International Airport (LTCG) |
| Time | Latitude | Longitude | Altitude | Speed | Heading |
|---|---|---|---|---|---|
| 2026-04-26 20:57 | 53.35880 | -2.27526 | 255 ft | 0 kts | 95° |
| 2026-04-26 21:19 | 53.35880 | -2.27527 | 255 ft | 0 kts | 95° |
| 2026-04-26 21:20 | 53.35882 | -2.27559 | 255 ft | 3 kts | 95° |
| 2026-04-26 21:20 | 53.35885 | -2.27595 | 255 ft | 3 kts | 114° |
| 2026-04-26 21:20 | 53.35897 | -2.27621 | 255 ft | 3 kts | 157° |
| 2026-04-26 21:20 | 53.35915 | -2.27627 | 255 ft | 1 kts | 186° |
| 2026-04-26 21:21 | 53.35919 | -2.27627 | 255 ft | 0 kts | 186° |
| 2026-04-26 21:23 | 53.35869 | -2.27635 | 255 ft | 9 kts | 186° |
| 2026-04-26 21:23 | 53.35815 | -2.27644 | 255 ft | 7 kts | 186° |
| 2026-04-26 21:23 | 53.35752 | -2.27651 | 250 ft | 11 kts | 174° |
| 2026-04-26 21:23 | 53.35672 | -2.27590 | 246 ft | 14 kts | 143° |
| 2026-04-26 21:24 | 53.35620 | -2.27475 | 245 ft | 12 kts | 86° |
| 2026-04-26 21:24 | 53.35668 | -2.27357 | 254 ft | 14 kts | 50° |
| 2026-04-26 21:24 | 53.35725 | -2.27238 | 255 ft | 13 kts | 51° |
| 2026-04-26 21:24 | 53.35782 | -2.27118 | 255 ft | 13 kts | 52° |
| 2026-04-26 21:25 | 53.35833 | -2.26989 | 255 ft | 14 kts | 58° |
| 2026-04-26 21:25 | 53.35893 | -2.26853 | 256 ft | 17 kts | 53° |
| 2026-04-26 21:25 | 53.35964 | -2.26689 | 256 ft | 18 kts | 51° |
| 2026-04-26 21:25 | 53.36047 | -2.26515 | 256 ft | 20 kts | 51° |
| 2026-04-26 21:26 | 53.36123 | -2.26355 | 255 ft | 11 kts | 51° |
| 2026-04-26 21:26 | 53.36136 | -2.26257 | 255 ft | 7 kts | 115° |
| 2026-04-26 21:26 | 53.36093 | -2.26190 | 256 ft | 10 kts | 142° |
| 2026-04-26 21:26 | 53.36040 | -2.26128 | 257 ft | 8 kts | 170° |
| 2026-04-26 21:27 | 53.36016 | -2.26162 | 259 ft | 2 kts | 233° |
| 2026-04-26 21:27 | 53.35955 | -2.26293 | 263 ft | 44 kts | 231° |
| 2026-04-26 21:27 | 53.35602 | -2.27023 | 258 ft | 116 kts | 231° |
| 2026-04-26 21:27 | 53.34967 | -2.28326 | 295 ft | 165 kts | 230° |
| 2026-04-26 21:28 | 53.34261 | -2.29781 | 1066 ft | 161 kts | 230° |
| 2026-04-26 21:28 | 53.33565 | -2.31243 | 1798 ft | 160 kts | 230° |
| 2026-04-26 21:28 | 53.32854 | -2.32744 | 2310 ft | 169 kts | 230° |
| 2026-04-26 21:28 | 53.32248 | -2.34460 | 2876 ft | 177 kts | 250° |
| 2026-04-26 21:29 | 53.32118 | -2.36533 | 3432 ft | 184 kts | 275° |
| 2026-04-26 21:29 | 53.32580 | -2.38696 | 3796 ft | 210 kts | 302° |
| 2026-04-26 21:29 | 53.33715 | -2.40387 | 4138 ft | 237 kts | 333° |
| 2026-04-26 21:29 | 53.35352 | -2.41352 | 4566 ft | 260 kts | 341° |
| 2026-04-26 21:30 | 53.37112 | -2.42280 | 5310 ft | 268 kts | 341° |
| 2026-04-26 21:30 | 53.38907 | -2.43215 | 6180 ft | 272 kts | 342° |
| 2026-04-26 21:30 | 53.40791 | -2.43646 | 7025 ft | 278 kts | 4° |
| 2026-04-26 21:30 | 53.42050 | -2.43186 | 7586 ft | 283 kts | 21° |
| 2026-04-26 21:31 | 53.44135 | -2.40465 | 8522 ft | 299 kts | 55° |
| 2026-04-26 21:31 | 53.44884 | -2.37103 | 8825 ft | 323 kts | 83° |
| 2026-04-26 21:31 | 53.45036 | -2.33210 | 9082 ft | 347 kts | 87° |
| 2026-04-26 21:31 | 53.45162 | -2.29030 | 9273 ft | 370 kts | 87° |
| 2026-04-26 21:32 | 53.45295 | -2.24602 | 9411 ft | 391 kts | 87° |
| 2026-04-26 21:32 | 53.45441 | -2.19969 | 9849 ft | 402 kts | 87° |
| 2026-04-26 21:32 | 53.45596 | -2.15245 | 10390 ft | 409 kts | 86° |
| 2026-04-26 21:32 | 53.45760 | -2.10456 | 10972 ft | 413 kts | 86° |
| 2026-04-26 21:33 | 53.45924 | -2.05752 | 12230 ft | 395 kts | 87° |
| 2026-04-26 21:33 | 53.46078 | -2.01187 | 13232 ft | 391 kts | 87° |
| 2026-04-26 21:33 | 53.46229 | -1.96624 | 13947 ft | 392 kts | 87° |
| 2026-04-26 21:33 | 53.46377 | -1.92084 | 14601 ft | 395 kts | 87° |
| 2026-04-26 21:34 | 53.46526 | -1.87457 | 15207 ft | 399 kts | 87° |
| 2026-04-26 21:34 | 53.46674 | -1.82791 | 15777 ft | 403 kts | 87° |
| 2026-04-26 21:34 | 53.46821 | -1.78056 | 16326 ft | 406 kts | 87° |
| 2026-04-26 21:34 | 53.46917 | -1.74905 | 16690 ft | 408 kts | 87° |
| 2026-04-26 21:35 | 53.47061 | -1.70124 | 17216 ft | 412 kts | 87° |
| 2026-04-26 21:35 | 53.47208 | -1.65300 | 17731 ft | 415 kts | 87° |
| 2026-04-26 21:35 | 53.47220 | -1.60433 | 18222 ft | 419 kts | 95° |
| 2026-04-26 21:35 | 53.46759 | -1.55600 | 18696 ft | 422 kts | 105° |
| 2026-04-26 21:36 | 53.45921 | -1.50848 | 19171 ft | 425 kts | 108° |
| 2026-04-26 21:36 | 53.45058 | -1.46087 | 19614 ft | 428 kts | 108° |
| 2026-04-26 21:36 | 53.44197 | -1.41287 | 20072 ft | 432 kts | 108° |
| 2026-04-26 21:36 | 53.43331 | -1.36442 | 20511 ft | 435 kts | 108° |
| 2026-04-26 21:37 | 53.42455 | -1.31555 | 20935 ft | 439 kts | 108° |
| 2026-04-26 21:37 | 53.41569 | -1.26646 | 21347 ft | 442 kts | 108° |
| 2026-04-26 21:37 | 53.40669 | -1.21688 | 21749 ft | 445 kts | 108° |
| 2026-04-26 21:37 | 53.39761 | -1.16716 | 22140 ft | 448 kts | 108° |
| 2026-04-26 21:38 | 53.38842 | -1.11704 | 22506 ft | 452 kts | 109° |
| 2026-04-26 21:38 | 53.37915 | -1.06659 | 22872 ft | 455 kts | 109° |
| 2026-04-26 21:38 | 53.36986 | -1.01577 | 23231 ft | 458 kts | 109° |
| 2026-04-26 21:38 | 53.36051 | -0.96465 | 23583 ft | 460 kts | 109° |
| 2026-04-26 21:39 | 53.35107 | -0.91328 | 23928 ft | 463 kts | 109° |
| 2026-04-26 21:39 | 53.34152 | -0.86167 | 24276 ft | 466 kts | 109° |
| 2026-04-26 21:39 | 53.33188 | -0.80984 | 24626 ft | 468 kts | 109° |
| 2026-04-26 21:39 | 53.32212 | -0.75774 | 24963 ft | 470 kts | 109° |
| 2026-04-26 21:40 | 53.31231 | -0.70543 | 25283 ft | 473 kts | 109° |
| 2026-04-26 21:40 | 53.30246 | -0.65285 | 25591 ft | 475 kts | 109° |
| 2026-04-26 21:40 | 53.29255 | -0.60007 | 25884 ft | 476 kts | 109° |
| 2026-04-26 21:40 | 53.28262 | -0.54730 | 26141 ft | 478 kts | 109° |
| 2026-04-26 21:41 | 53.27258 | -0.49415 | 26402 ft | 480 kts | 109° |
| 2026-04-26 21:41 | 53.26244 | -0.44087 | 26665 ft | 482 kts | 109° |
| 2026-04-26 21:41 | 53.25226 | -0.38740 | 26935 ft | 484 kts | 109° |
| 2026-04-26 21:41 | 53.24201 | -0.33372 | 27200 ft | 486 kts | 109° |
| 2026-04-26 21:42 | 53.23175 | -0.27988 | 27450 ft | 488 kts | 109° |
| 2026-04-26 21:42 | 53.22148 | -0.22593 | 27826 ft | 487 kts | 109° |
| 2026-04-26 21:42 | 53.21123 | -0.17221 | 28218 ft | 486 kts | 109° |
| 2026-04-26 21:42 | 53.20109 | -0.11928 | 28599 ft | 485 kts | 110° |
| 2026-04-26 21:43 | 53.19078 | -0.06578 | 28968 ft | 484 kts | 110° |
| 2026-04-26 21:43 | 53.18041 | -0.01228 | 29316 ft | 484 kts | 110° |
| 2026-04-26 21:43 | 53.17007 | 0.04099 | 29667 ft | 483 kts | 110° |
| 2026-04-26 21:43 | 53.15967 | 0.09432 | 29922 ft | 485 kts | 109° |
| 2026-04-26 21:44 | 53.14915 | 0.14794 | 30168 ft | 487 kts | 109° |
| 2026-04-26 21:44 | 53.13859 | 0.20169 | 30485 ft | 487 kts | 109° |
| 2026-04-26 21:44 | 53.12807 | 0.25524 | 30811 ft | 487 kts | 109° |
| 2026-04-26 21:44 | 53.11752 | 0.30885 | 31134 ft | 487 kts | 109° |
| 2026-04-26 21:45 | 53.10697 | 0.36231 | 31466 ft | 486 kts | 109° |
| 2026-04-26 21:45 | 53.09641 | 0.41562 | 31797 ft | 485 kts | 109° |
| 2026-04-26 21:45 | 53.08580 | 0.46895 | 32109 ft | 485 kts | 110° |
| 2026-04-26 21:45 | 53.07516 | 0.52225 | 32405 ft | 485 kts | 109° |
| 2026-04-26 21:46 | 53.06454 | 0.57539 | 32716 ft | 485 kts | 110° |
| 2026-04-26 21:46 | 53.05390 | 0.62855 | 33015 ft | 484 kts | 110° |
| 2026-04-26 21:46 | 53.04328 | 0.68162 | 33309 ft | 484 kts | 110° |
| 2026-04-26 21:46 | 53.03265 | 0.73458 | 33598 ft | 484 kts | 110° |
| 2026-04-26 21:47 | 53.02197 | 0.78759 | 33902 ft | 484 kts | 110° |
| 2026-04-26 21:47 | 53.01142 | 0.83985 | 34189 ft | 483 kts | 110° |
| 2026-04-26 21:47 | 53.00069 | 0.89275 | 34491 ft | 482 kts | 110° |
| 2026-04-26 21:47 | 52.98997 | 0.94541 | 34791 ft | 481 kts | 110° |
| 2026-04-26 21:48 | 52.97966 | 0.99828 | 35082 ft | 481 kts | 105° |
| 2026-04-26 21:48 | 52.97265 | 1.05259 | 35292 ft | 482 kts | 101° |
| 2026-04-26 21:48 | 52.96007 | 1.16251 | 35344 ft | 486 kts | 101° |
| 2026-04-26 21:49 | 52.94738 | 1.27248 | 35350 ft | 486 kts | 101° |
| 2026-04-26 21:49 | 52.93445 | 1.38239 | 35349 ft | 486 kts | 101° |
| 2026-04-26 21:50 | 52.92153 | 1.49157 | 35345 ft | 486 kts | 101° |
| 2026-04-26 21:50 | 52.90848 | 1.60140 | 35345 ft | 485 kts | 101° |
| 2026-04-26 21:51 | 52.89532 | 1.71098 | 35349 ft | 485 kts | 102° |
| 2026-04-26 21:51 | 52.88201 | 1.82047 | 35351 ft | 485 kts | 102° |
| 2026-04-26 21:52 | 52.86862 | 1.93000 | 35344 ft | 485 kts | 102° |
| 2026-04-26 21:52 | 52.85519 | 2.03936 | 35344 ft | 485 kts | 102° |
| 2026-04-26 21:53 | 52.84164 | 2.14868 | 35344 ft | 485 kts | 101° |
| 2026-04-26 21:53 | 52.82812 | 2.25733 | 35342 ft | 485 kts | 102° |
| 2026-04-26 21:54 | 52.81420 | 2.36728 | 35345 ft | 486 kts | 102° |
| 2026-04-26 21:54 | 52.80018 | 2.47642 | 35345 ft | 485 kts | 102° |
| 2026-04-26 21:55 | 52.78628 | 2.58483 | 35340 ft | 485 kts | 102° |
| 2026-04-26 21:55 | 52.77232 | 2.69390 | 35337 ft | 485 kts | 102° |
| 2026-04-26 21:56 | 52.75814 | 2.80283 | 35336 ft | 485 kts | 102° |
| 2026-04-26 21:56 | 52.74392 | 2.91150 | 35326 ft | 485 kts | 102° |
| 2026-04-26 21:57 | 52.72926 | 3.02008 | 35318 ft | 485 kts | 103° |
| 2026-04-26 21:57 | 52.71227 | 3.12784 | 35318 ft | 485 kts | 105° |
| 2026-04-26 21:58 | 52.69383 | 3.23494 | 35323 ft | 486 kts | 105° |
| 2026-04-26 21:58 | 52.67553 | 3.34209 | 35323 ft | 486 kts | 105° |
| 2026-04-26 21:59 | 52.65776 | 3.44943 | 35323 ft | 486 kts | 105° |
| 2026-04-26 21:59 | 52.63992 | 3.55696 | 35328 ft | 487 kts | 105° |
| 2026-04-26 22:00 | 52.62189 | 3.66436 | 35333 ft | 487 kts | 105° |
| 2026-04-26 22:00 | 52.60365 | 3.77159 | 35338 ft | 486 kts | 105° |
| 2026-04-26 22:01 | 52.58540 | 3.87856 | 35343 ft | 486 kts | 105° |
| 2026-04-26 22:01 | 52.56708 | 3.98550 | 35339 ft | 485 kts | 105° |
| 2026-04-26 22:02 | 52.55181 | 4.07414 | 35345 ft | 485 kts | 105° |
| 2026-04-26 22:02 | 52.53022 | 4.19800 | 35332 ft | 485 kts | 105° |
| 2026-04-26 22:03 | 52.51217 | 4.30098 | 35335 ft | 485 kts | 105° |
| 2026-04-26 22:03 | 52.49343 | 4.40749 | 35330 ft | 486 kts | 105° |
| 2026-04-26 22:04 | 52.47466 | 4.51408 | 35336 ft | 486 kts | 105° |
| 2026-04-26 22:04 | 52.45574 | 4.62061 | 35333 ft | 486 kts | 105° |
| 2026-04-26 22:05 | 52.43682 | 4.72639 | 35329 ft | 486 kts | 105° |
| 2026-04-26 22:05 | 52.41768 | 4.83283 | 35326 ft | 487 kts | 105° |
| 2026-04-26 22:06 | 52.39846 | 4.93905 | 35323 ft | 487 kts | 105° |
| 2026-04-26 22:06 | 52.37907 | 5.04540 | 35321 ft | 487 kts | 105° |
| 2026-04-26 22:07 | 52.35959 | 5.15166 | 35319 ft | 487 kts | 105° |
| 2026-04-26 22:07 | 52.34000 | 5.25784 | 35313 ft | 488 kts | 105° |
| 2026-04-26 22:08 | 52.32027 | 5.36409 | 35315 ft | 488 kts | 105° |
| 2026-04-26 22:08 | 52.30051 | 5.47022 | 35319 ft | 488 kts | 105° |
| 2026-04-26 22:09 | 52.28069 | 5.57645 | 35315 ft | 489 kts | 105° |
| 2026-04-26 22:09 | 52.26074 | 5.68262 | 35323 ft | 489 kts | 105° |
| 2026-04-26 22:10 | 52.24066 | 5.78797 | 35330 ft | 489 kts | 105° |
| 2026-04-26 22:10 | 52.22039 | 5.89407 | 35335 ft | 489 kts | 105° |
| 2026-04-26 22:11 | 52.20014 | 6.00000 | 35334 ft | 489 kts | 105° |
| 2026-04-26 22:11 | 52.17985 | 6.10567 | 35336 ft | 488 kts | 105° |
| 2026-04-26 22:12 | 52.15943 | 6.21128 | 35338 ft | 488 kts | 105° |
| 2026-04-26 22:12 | 52.13886 | 6.31681 | 35337 ft | 488 kts | 105° |
| 2026-04-26 22:13 | 52.11822 | 6.42156 | 35330 ft | 488 kts | 105° |
| 2026-04-26 22:13 | 52.09745 | 6.52693 | 35332 ft | 489 kts | 105° |
| 2026-04-26 22:14 | 52.07663 | 6.63229 | 35325 ft | 489 kts | 105° |
| 2026-04-26 22:14 | 52.05567 | 6.73739 | 35318 ft | 489 kts | 106° |
| 2026-04-26 22:15 | 52.03461 | 6.84260 | 35314 ft | 489 kts | 106° |
| 2026-04-26 22:15 | 52.01353 | 6.94742 | 35307 ft | 489 kts | 106° |
| 2026-04-26 22:16 | 51.99235 | 7.05222 | 35304 ft | 489 kts | 106° |
| 2026-04-26 22:16 | 51.97102 | 7.15687 | 35305 ft | 488 kts | 106° |
| 2026-04-26 22:17 | 51.94960 | 7.26130 | 35300 ft | 488 kts | 106° |
| 2026-04-26 22:17 | 51.92810 | 7.36575 | 35296 ft | 489 kts | 106° |
| 2026-04-26 22:18 | 51.90654 | 7.47014 | 35301 ft | 489 kts | 106° |
| 2026-04-26 22:18 | 51.88480 | 7.57448 | 35294 ft | 488 kts | 106° |
| 2026-04-26 22:19 | 51.86667 | 7.66093 | 35295 ft | 488 kts | 106° |
| 2026-04-26 22:19 | 51.84030 | 7.78149 | 35293 ft | 489 kts | 109° |
| 2026-04-26 22:20 | 51.81945 | 7.86646 | 35294 ft | 490 kts | 110° |
| 2026-04-26 22:20 | 51.79360 | 7.96839 | 35294 ft | 490 kts | 110° |
| 2026-04-26 22:21 | 51.76809 | 8.07043 | 35293 ft | 490 kts | 110° |
| 2026-04-26 22:21 | 51.73890 | 8.18915 | 35290 ft | 489 kts | 110° |
| 2026-04-26 22:22 | 51.71796 | 8.27396 | 35294 ft | 490 kts | 110° |
| 2026-04-26 22:22 | 51.69262 | 8.37600 | 35296 ft | 490 kts | 110° |
| 2026-04-26 22:23 | 51.66703 | 8.47787 | 35304 ft | 490 kts | 110° |
| 2026-04-26 22:23 | 51.64131 | 8.57945 | 35307 ft | 490 kts | 110° |
| 2026-04-26 22:24 | 51.61565 | 8.68097 | 35303 ft | 489 kts | 110° |
| 2026-04-26 22:24 | 51.59001 | 8.78228 | 35300 ft | 489 kts | 110° |
| 2026-04-26 22:25 | 51.56423 | 8.88349 | 35306 ft | 489 kts | 110° |
| 2026-04-26 22:25 | 51.53822 | 8.98459 | 35306 ft | 490 kts | 110° |
| 2026-04-26 22:26 | 51.51216 | 9.08564 | 35307 ft | 490 kts | 110° |
| 2026-04-26 22:26 | 51.48815 | 9.18773 | 35307 ft | 488 kts | 106° |
| 2026-04-26 22:27 | 51.46830 | 9.29119 | 35301 ft | 488 kts | 104° |
| 2026-04-26 22:27 | 51.44888 | 9.39544 | 35296 ft | 488 kts | 105° |
| 2026-04-26 22:28 | 51.42826 | 9.49922 | 35297 ft | 489 kts | 106° |
| 2026-04-26 22:28 | 51.40689 | 9.60277 | 35300 ft | 489 kts | 106° |
| 2026-04-26 22:29 | 51.38546 | 9.70631 | 35307 ft | 490 kts | 106° |
| 2026-04-26 22:29 | 51.36418 | 9.80984 | 35309 ft | 490 kts | 106° |
| 2026-04-26 22:30 | 51.34289 | 9.91331 | 35311 ft | 490 kts | 106° |
| 2026-04-26 22:30 | 51.32140 | 10.01667 | 35309 ft | 490 kts | 106° |
| 2026-04-26 22:31 | 51.29980 | 10.12004 | 35310 ft | 490 kts | 107° |
| 2026-04-26 22:31 | 51.27816 | 10.22319 | 35310 ft | 490 kts | 107° |
| 2026-04-26 22:32 | 51.25630 | 10.32612 | 35311 ft | 490 kts | 109° |
| 2026-04-26 22:32 | 51.22515 | 10.42291 | 35316 ft | 491 kts | 119° |
| 2026-04-26 22:33 | 51.17413 | 10.56353 | 35316 ft | 490 kts | 119° |
| 2026-04-26 22:34 | 51.14010 | 10.65755 | 35315 ft | 490 kts | 119° |
| 2026-04-26 22:34 | 51.10596 | 10.75129 | 35313 ft | 489 kts | 119° |
| 2026-04-26 22:35 | 51.07151 | 10.84537 | 35311 ft | 489 kts | 120° |
| 2026-04-26 22:35 | 51.03742 | 10.93801 | 35313 ft | 488 kts | 120° |
| 2026-04-26 22:36 | 51.00310 | 11.03097 | 35310 ft | 488 kts | 120° |
| 2026-04-26 22:36 | 50.96842 | 11.12452 | 35309 ft | 488 kts | 120° |
| 2026-04-26 22:37 | 50.93398 | 11.21727 | 35312 ft | 488 kts | 120° |
| 2026-04-26 22:37 | 50.89971 | 11.30944 | 35310 ft | 488 kts | 120° |
| 2026-04-26 22:38 | 50.86522 | 11.40177 | 35310 ft | 487 kts | 120° |
| 2026-04-26 22:38 | 50.83061 | 11.49394 | 35307 ft | 486 kts | 120° |
| 2026-04-26 22:39 | 50.79599 | 11.58580 | 35297 ft | 486 kts | 121° |
| 2026-04-26 22:39 | 50.76135 | 11.67742 | 35299 ft | 486 kts | 121° |
| 2026-04-26 22:40 | 50.72662 | 11.76895 | 35299 ft | 486 kts | 121° |
| 2026-04-26 22:40 | 50.69178 | 11.86027 | 35300 ft | 485 kts | 121° |
| 2026-04-26 22:41 | 50.65692 | 11.95139 | 35299 ft | 485 kts | 121° |
| 2026-04-26 22:41 | 50.62209 | 12.04240 | 35295 ft | 484 kts | 121° |
| 2026-04-26 22:42 | 50.58721 | 12.13314 | 35294 ft | 484 kts | 121° |
| 2026-04-26 22:42 | 50.55248 | 12.22303 | 35297 ft | 484 kts | 121° |
| 2026-04-26 22:43 | 50.51745 | 12.31330 | 35293 ft | 483 kts | 121° |
| 2026-04-26 22:43 | 50.48240 | 12.40339 | 35289 ft | 483 kts | 121° |
| 2026-04-26 22:44 | 50.44727 | 12.49333 | 35289 ft | 483 kts | 122° |
| 2026-04-26 22:44 | 50.41208 | 12.58314 | 35290 ft | 482 kts | 122° |
| 2026-04-26 22:45 | 50.37736 | 12.67311 | 35286 ft | 483 kts | 119° |
| 2026-04-26 22:45 | 50.34620 | 12.76618 | 35283 ft | 483 kts | 116° |
| 2026-04-26 22:46 | 50.31643 | 12.86058 | 35417 ft | 484 kts | 116° |
| 2026-04-26 22:46 | 50.30149 | 12.90683 | 35701 ft | 483 kts | 117° |
| 2026-04-26 22:46 | 50.28602 | 12.95358 | 35948 ft | 483 kts | 117° |
| 2026-04-26 22:46 | 50.27036 | 13.00004 | 36183 ft | 483 kts | 118° |
| 2026-04-26 22:47 | 50.25456 | 13.04640 | 36423 ft | 483 kts | 118° |
| 2026-04-26 22:47 | 50.23876 | 13.09273 | 36662 ft | 483 kts | 118° |
| 2026-04-26 22:47 | 50.22300 | 13.13909 | 36947 ft | 480 kts | 117° |
| 2026-04-26 22:47 | 50.20738 | 13.18512 | 37231 ft | 478 kts | 117° |
| 2026-04-26 22:48 | 50.19187 | 13.23091 | 37303 ft | 477 kts | 118° |
| 2026-04-26 22:48 | 50.16082 | 13.32236 | 37304 ft | 476 kts | 118° |
| 2026-04-26 22:49 | 50.12975 | 13.41353 | 37303 ft | 476 kts | 118° |
| 2026-04-26 22:49 | 50.09861 | 13.50431 | 37304 ft | 475 kts | 118° |
| 2026-04-26 22:50 | 50.06775 | 13.59407 | 37303 ft | 475 kts | 118° |
| 2026-04-26 22:50 | 50.03620 | 13.68571 | 37304 ft | 475 kts | 118° |
| 2026-04-26 22:51 | 50.00483 | 13.77624 | 37304 ft | 475 kts | 118° |
| 2026-04-26 22:51 | 49.97358 | 13.86608 | 37305 ft | 475 kts | 118° |
| 2026-04-26 22:52 | 49.94206 | 13.95644 | 37307 ft | 476 kts | 118° |
| 2026-04-26 22:52 | 49.91050 | 14.04663 | 37308 ft | 476 kts | 118° |
| 2026-04-26 22:53 | 49.87880 | 14.13674 | 37307 ft | 476 kts | 119° |
| 2026-04-26 22:53 | 49.84707 | 14.22672 | 37305 ft | 476 kts | 119° |
| 2026-04-26 22:54 | 49.81533 | 14.31661 | 37304 ft | 475 kts | 119° |
| 2026-04-26 22:54 | 49.78357 | 14.40634 | 37303 ft | 475 kts | 119° |
| 2026-04-26 22:55 | 49.75172 | 14.49584 | 37302 ft | 475 kts | 119° |
| 2026-04-26 22:55 | 49.71986 | 14.58474 | 37299 ft | 475 kts | 119° |
| 2026-04-26 22:56 | 49.68778 | 14.67413 | 37297 ft | 476 kts | 119° |
| 2026-04-26 22:56 | 49.65563 | 14.76361 | 37296 ft | 477 kts | 119° |
| 2026-04-26 22:57 | 49.62330 | 14.85309 | 37300 ft | 478 kts | 119° |
| 2026-04-26 22:57 | 49.59091 | 14.94250 | 37301 ft | 478 kts | 120° |
| 2026-04-26 22:58 | 49.55845 | 15.03184 | 37298 ft | 478 kts | 120° |
| 2026-04-26 22:58 | 49.52607 | 15.12058 | 37294 ft | 478 kts | 120° |
| 2026-04-26 22:59 | 49.49337 | 15.20973 | 37301 ft | 479 kts | 120° |
| 2026-04-26 22:59 | 49.46057 | 15.29892 | 37295 ft | 479 kts | 120° |
| 2026-04-26 23:00 | 49.42780 | 15.38809 | 37292 ft | 479 kts | 120° |
| 2026-04-26 23:00 | 49.39493 | 15.47709 | 37284 ft | 479 kts | 120° |
| 2026-04-26 23:01 | 49.36192 | 15.56594 | 37283 ft | 479 kts | 120° |
| 2026-04-26 23:01 | 49.32886 | 15.65467 | 37281 ft | 479 kts | 120° |
| 2026-04-26 23:02 | 49.29565 | 15.74332 | 37281 ft | 479 kts | 120° |
| 2026-04-26 23:02 | 49.26242 | 15.83190 | 37279 ft | 480 kts | 120° |
| 2026-04-26 23:03 | 49.22915 | 15.92051 | 37273 ft | 480 kts | 120° |
| 2026-04-26 23:03 | 49.19606 | 16.00818 | 37268 ft | 480 kts | 120° |
| 2026-04-26 23:04 | 49.16227 | 16.09747 | 37262 ft | 481 kts | 120° |
| 2026-04-26 23:04 | 49.12870 | 16.18586 | 37259 ft | 481 kts | 120° |
| 2026-04-26 23:05 | 49.09495 | 16.27432 | 37258 ft | 482 kts | 121° |
| 2026-04-26 23:05 | 49.06114 | 16.36262 | 37263 ft | 482 kts | 121° |
| 2026-04-26 23:06 | 49.02724 | 16.45094 | 37267 ft | 482 kts | 121° |
| 2026-04-26 23:06 | 48.99351 | 16.53854 | 37274 ft | 483 kts | 121° |
| 2026-04-26 23:07 | 48.95944 | 16.62678 | 37277 ft | 483 kts | 121° |
| 2026-04-26 23:07 | 48.92524 | 16.71492 | 37276 ft | 484 kts | 121° |
| 2026-04-26 23:08 | 48.89100 | 16.80296 | 37276 ft | 484 kts | 121° |
| 2026-04-26 23:08 | 48.86248 | 16.87613 | 37272 ft | 484 kts | 121° |
| 2026-04-26 23:09 | 48.82806 | 16.96416 | 37264 ft | 485 kts | 121° |
| 2026-04-26 23:09 | 48.79357 | 17.05198 | 37264 ft | 485 kts | 121° |
| 2026-04-26 23:10 | 48.75787 | 17.13855 | 37262 ft | 484 kts | 124° |
| 2026-04-26 23:10 | 48.71959 | 17.22349 | 37259 ft | 484 kts | 126° |
| 2026-04-26 23:11 | 48.68117 | 17.30717 | 37258 ft | 484 kts | 126° |
| 2026-04-26 23:11 | 48.64313 | 17.39128 | 37260 ft | 484 kts | 125° |
| 2026-04-26 23:12 | 48.60537 | 17.47563 | 37264 ft | 485 kts | 125° |
| 2026-04-26 23:12 | 48.56776 | 17.55942 | 37269 ft | 485 kts | 125° |
| 2026-04-26 23:13 | 48.52967 | 17.64364 | 37275 ft | 485 kts | 126° |
| 2026-04-26 23:13 | 48.49156 | 17.72758 | 37279 ft | 485 kts | 126° |
| 2026-04-26 23:14 | 48.45338 | 17.81146 | 37283 ft | 485 kts | 126° |
| 2026-04-26 23:14 | 48.41507 | 17.89513 | 37287 ft | 485 kts | 126° |
| 2026-04-26 23:15 | 48.37670 | 17.97878 | 37292 ft | 486 kts | 126° |
| 2026-04-26 23:15 | 48.33838 | 18.06241 | 37293 ft | 486 kts | 126° |
| 2026-04-26 23:16 | 48.29988 | 18.14592 | 37297 ft | 486 kts | 126° |
| 2026-04-26 23:16 | 48.26134 | 18.22930 | 37293 ft | 486 kts | 126° |
| 2026-04-26 23:17 | 48.22272 | 18.31259 | 37297 ft | 486 kts | 126° |
| 2026-04-26 23:17 | 48.18401 | 18.39573 | 37299 ft | 486 kts | 126° |
| 2026-04-26 23:18 | 48.14527 | 18.47877 | 37300 ft | 486 kts | 126° |
| 2026-04-26 23:18 | 48.10652 | 18.56153 | 37301 ft | 485 kts | 126° |
| 2026-04-26 23:19 | 48.06771 | 18.64415 | 37299 ft | 486 kts | 126° |
| 2026-04-26 23:19 | 48.02879 | 18.72687 | 37303 ft | 486 kts | 127° |
| 2026-04-26 23:20 | 47.98976 | 18.80939 | 37301 ft | 487 kts | 127° |
| 2026-04-26 23:20 | 47.95088 | 18.89128 | 37314 ft | 486 kts | 127° |
| 2026-04-26 23:21 | 47.91189 | 18.97329 | 37316 ft | 484 kts | 127° |
| 2026-04-26 23:21 | 47.87298 | 19.05516 | 37315 ft | 484 kts | 127° |
| 2026-04-26 23:22 | 47.83393 | 19.13682 | 37314 ft | 484 kts | 127° |
| 2026-04-26 23:22 | 47.79465 | 19.21877 | 37308 ft | 483 kts | 127° |
| 2026-04-26 23:23 | 47.75579 | 19.29959 | 37308 ft | 483 kts | 128° |
| 2026-04-26 23:23 | 47.71658 | 19.38073 | 37308 ft | 483 kts | 128° |
| 2026-04-26 23:24 | 47.67737 | 19.46172 | 37306 ft | 483 kts | 128° |
| 2026-04-26 23:24 | 47.63810 | 19.54262 | 37306 ft | 483 kts | 128° |
| 2026-04-26 23:25 | 47.59885 | 19.62334 | 37306 ft | 483 kts | 128° |
| 2026-04-26 23:25 | 47.55950 | 19.70413 | 37299 ft | 483 kts | 128° |
| 2026-04-26 23:26 | 47.52032 | 19.78421 | 37295 ft | 483 kts | 128° |
| 2026-04-26 23:26 | 47.48079 | 19.86467 | 37296 ft | 483 kts | 128° |
| 2026-04-26 23:27 | 47.44117 | 19.94510 | 37298 ft | 483 kts | 128° |
| 2026-04-26 23:27 | 47.40157 | 20.02532 | 37298 ft | 483 kts | 128° |
| 2026-04-26 23:28 | 47.36209 | 20.10501 | 37291 ft | 483 kts | 128° |
| 2026-04-26 23:28 | 47.32230 | 20.18498 | 37291 ft | 484 kts | 128° |
| 2026-04-26 23:29 | 47.28250 | 20.26481 | 37290 ft | 483 kts | 128° |
| 2026-04-26 23:29 | 47.24269 | 20.34453 | 37294 ft | 483 kts | 128° |
| 2026-04-26 23:30 | 47.20286 | 20.42403 | 37296 ft | 483 kts | 129° |
| 2026-04-26 23:30 | 47.16368 | 20.50443 | 37294 ft | 484 kts | 127° |
| 2026-04-26 23:31 | 47.12565 | 20.58599 | 37294 ft | 484 kts | 126° |
| 2026-04-26 23:31 | 47.08766 | 20.66749 | 37294 ft | 484 kts | 127° |
| 2026-04-26 23:32 | 47.04921 | 20.74850 | 37295 ft | 484 kts | 127° |
| 2026-04-26 23:32 | 47.01043 | 20.82921 | 37296 ft | 484 kts | 127° |
| 2026-04-26 23:33 | 46.97194 | 20.90941 | 37293 ft | 484 kts | 127° |
| 2026-04-26 23:33 | 46.93326 | 20.99009 | 37292 ft | 484 kts | 127° |
| 2026-04-26 23:34 | 46.89458 | 21.07071 | 37289 ft | 484 kts | 127° |
| 2026-04-26 23:34 | 46.85566 | 21.15103 | 37287 ft | 484 kts | 128° |
| 2026-04-26 23:35 | 46.81671 | 21.23124 | 37286 ft | 484 kts | 128° |
| 2026-04-26 23:35 | 46.77772 | 21.31150 | 37284 ft | 484 kts | 128° |
| 2026-04-26 23:36 | 46.73874 | 21.39165 | 37284 ft | 485 kts | 128° |
| 2026-04-26 23:36 | 46.69968 | 21.47180 | 37292 ft | 485 kts | 128° |
| 2026-04-26 23:37 | 46.66112 | 21.55231 | 37300 ft | 485 kts | 126° |
| 2026-04-26 23:37 | 46.62372 | 21.63393 | 37305 ft | 485 kts | 126° |
| 2026-04-26 23:38 | 46.58711 | 21.71447 | 37306 ft | 484 kts | 126° |
| 2026-04-26 23:38 | 46.54916 | 21.79652 | 37304 ft | 484 kts | 127° |
| 2026-04-26 23:39 | 46.51134 | 21.87738 | 37304 ft | 483 kts | 127° |
| 2026-04-26 23:39 | 46.47362 | 21.95810 | 37302 ft | 483 kts | 126° |
| 2026-04-26 23:40 | 46.43604 | 22.03863 | 37293 ft | 482 kts | 127° |
| 2026-04-26 23:40 | 46.39833 | 22.11903 | 37286 ft | 482 kts | 127° |
| 2026-04-26 23:41 | 46.36079 | 22.19873 | 37284 ft | 482 kts | 127° |
| 2026-04-26 23:41 | 46.32298 | 22.27884 | 37282 ft | 482 kts | 127° |
| 2026-04-26 23:42 | 46.28509 | 22.35888 | 37279 ft | 482 kts | 127° |
| 2026-04-26 23:42 | 46.22820 | 22.47873 | 37273 ft | 482 kts | 127° |
| 2026-04-26 23:43 | 46.19013 | 22.55846 | 37272 ft | 483 kts | 127° |
| 2026-04-26 23:43 | 46.15196 | 22.63830 | 37268 ft | 483 kts | 127° |
| 2026-04-26 23:44 | 46.11371 | 22.71808 | 37262 ft | 484 kts | 127° |
| 2026-04-26 23:44 | 46.07535 | 22.79783 | 37260 ft | 485 kts | 127° |
| 2026-04-26 23:45 | 46.03684 | 22.87776 | 37259 ft | 486 kts | 127° |
| 2026-04-26 23:45 | 45.99818 | 22.95771 | 37260 ft | 487 kts | 127° |
| 2026-04-26 23:46 | 45.95945 | 23.03749 | 37282 ft | 486 kts | 127° |
| 2026-04-26 23:46 | 45.92094 | 23.11656 | 37289 ft | 485 kts | 127° |
| 2026-04-26 23:47 | 45.88219 | 23.19606 | 37287 ft | 485 kts | 127° |
| 2026-04-26 23:47 | 45.84341 | 23.27531 | 37281 ft | 485 kts | 127° |
| 2026-04-26 23:48 | 45.80459 | 23.35446 | 37276 ft | 485 kts | 127° |
| 2026-04-26 23:48 | 45.76568 | 23.43360 | 37271 ft | 486 kts | 127° |
| 2026-04-26 23:49 | 45.72675 | 23.51272 | 37266 ft | 486 kts | 127° |
| 2026-04-26 23:49 | 45.68772 | 23.59180 | 37264 ft | 487 kts | 127° |
| 2026-04-26 23:50 | 45.64880 | 23.67022 | 37264 ft | 487 kts | 127° |
| 2026-04-26 23:50 | 45.60941 | 23.74927 | 37265 ft | 488 kts | 127° |
| 2026-04-26 23:51 | 45.57002 | 23.82820 | 37264 ft | 488 kts | 128° |
| 2026-04-26 23:51 | 45.53059 | 23.90709 | 37268 ft | 488 kts | 128° |
| 2026-04-26 23:52 | 45.49111 | 23.98578 | 37273 ft | 488 kts | 128° |
| 2026-04-26 23:52 | 45.45156 | 24.06444 | 37277 ft | 488 kts | 128° |
| 2026-04-26 23:53 | 45.41196 | 24.14293 | 37276 ft | 487 kts | 128° |
| 2026-04-26 23:53 | 45.37232 | 24.22123 | 37277 ft | 488 kts | 128° |
| 2026-04-26 23:54 | 45.33263 | 24.29946 | 37278 ft | 487 kts | 128° |
| 2026-04-26 23:54 | 45.29331 | 24.37696 | 37273 ft | 486 kts | 128° |
| 2026-04-26 23:55 | 45.25369 | 24.45476 | 37277 ft | 486 kts | 128° |
| 2026-04-26 23:55 | 45.21403 | 24.53227 | 37276 ft | 485 kts | 128° |
| 2026-04-26 23:56 | 45.18074 | 24.59720 | 37275 ft | 485 kts | 128° |
| 2026-04-26 23:56 | 45.14104 | 24.67438 | 37275 ft | 484 kts | 128° |
| 2026-04-26 23:57 | 45.10163 | 24.75089 | 37271 ft | 484 kts | 128° |
| 2026-04-26 23:57 | 45.06200 | 24.82774 | 37269 ft | 484 kts | 128° |
| 2026-04-26 23:58 | 45.02229 | 24.90457 | 37269 ft | 483 kts | 128° |
| 2026-04-26 23:58 | 44.98251 | 24.98121 | 37269 ft | 483 kts | 128° |
| 2026-04-26 23:59 | 44.94272 | 25.05750 | 37269 ft | 482 kts | 128° |
| 2026-04-26 23:59 | 44.90289 | 25.13370 | 37264 ft | 482 kts | 128° |
| 2026-04-27 00:00 | 44.86337 | 25.20924 | 37261 ft | 481 kts | 128° |
| 2026-04-27 00:00 | 44.82358 | 25.28511 | 37258 ft | 481 kts | 128° |
| 2026-04-27 00:01 | 44.78360 | 25.36092 | 37258 ft | 481 kts | 128° |
| 2026-04-27 00:01 | 44.74371 | 25.43649 | 37254 ft | 481 kts | 128° |
| 2026-04-27 00:02 | 44.70390 | 25.51188 | 37256 ft | 480 kts | 128° |
| 2026-04-27 00:02 | 44.66402 | 25.58696 | 37255 ft | 479 kts | 128° |
| 2026-04-27 00:03 | 44.62417 | 25.66184 | 37255 ft | 478 kts | 128° |
| 2026-04-27 00:03 | 44.58459 | 25.73622 | 37254 ft | 478 kts | 128° |
| 2026-04-27 00:04 | 44.54481 | 25.81075 | 37253 ft | 477 kts | 128° |
| 2026-04-27 00:04 | 44.50499 | 25.88507 | 37252 ft | 476 kts | 128° |
| 2026-04-27 00:05 | 44.46525 | 25.95907 | 37250 ft | 475 kts | 128° |
| 2026-04-27 00:05 | 44.42541 | 26.03291 | 37248 ft | 475 kts | 128° |
| 2026-04-27 00:06 | 44.38549 | 26.10668 | 37248 ft | 475 kts | 128° |
| 2026-04-27 00:06 | 44.34559 | 26.18031 | 37247 ft | 475 kts | 128° |
| 2026-04-27 00:07 | 44.30566 | 26.25385 | 37246 ft | 475 kts | 129° |
| 2026-04-27 00:07 | 44.26575 | 26.32729 | 37245 ft | 475 kts | 129° |
| 2026-04-27 00:08 | 44.22581 | 26.40066 | 37244 ft | 475 kts | 129° |
| 2026-04-27 00:08 | 44.18596 | 26.47342 | 37232 ft | 475 kts | 129° |
| 2026-04-27 00:09 | 44.14578 | 26.54670 | 37235 ft | 475 kts | 129° |
| 2026-04-27 00:09 | 44.10558 | 26.61987 | 37229 ft | 476 kts | 129° |
| 2026-04-27 00:10 | 44.06524 | 26.69290 | 37226 ft | 476 kts | 129° |
| 2026-04-27 00:10 | 44.02486 | 26.76589 | 37229 ft | 476 kts | 129° |
| 2026-04-27 00:11 | 43.98441 | 26.83907 | 37226 ft | 477 kts | 129° |
| 2026-04-27 00:11 | 43.94398 | 26.91199 | 37238 ft | 477 kts | 129° |
| 2026-04-27 00:12 | 43.90376 | 26.98428 | 37254 ft | 476 kts | 129° |
| 2026-04-27 00:12 | 43.86319 | 27.05685 | 37252 ft | 476 kts | 129° |
| 2026-04-27 00:13 | 43.82255 | 27.12933 | 37250 ft | 476 kts | 129° |
| 2026-04-27 00:13 | 43.78194 | 27.20176 | 37248 ft | 476 kts | 129° |
| 2026-04-27 00:14 | 43.74131 | 27.27418 | 37246 ft | 476 kts | 129° |
| 2026-04-27 00:14 | 43.70059 | 27.34649 | 37246 ft | 477 kts | 129° |
| 2026-04-27 00:15 | 43.65983 | 27.41869 | 37244 ft | 476 kts | 129° |
| 2026-04-27 00:15 | 43.61893 | 27.49092 | 37244 ft | 476 kts | 130° |
| 2026-04-27 00:16 | 43.57803 | 27.56287 | 37244 ft | 477 kts | 130° |
| 2026-04-27 00:16 | 43.53705 | 27.63470 | 37246 ft | 477 kts | 130° |
| 2026-04-27 00:17 | 43.49601 | 27.70660 | 37245 ft | 477 kts | 130° |
| 2026-04-27 00:17 | 43.45499 | 27.77851 | 37247 ft | 477 kts | 130° |
| 2026-04-27 00:18 | 43.41382 | 27.85026 | 37248 ft | 477 kts | 130° |
| 2026-04-27 00:18 | 43.37265 | 27.92182 | 37253 ft | 477 kts | 130° |
| 2026-04-27 00:19 | 43.33163 | 27.99289 | 37253 ft | 477 kts | 130° |
| 2026-04-27 00:19 | 43.29041 | 28.06425 | 37256 ft | 476 kts | 130° |
| 2026-04-27 00:20 | 43.24919 | 28.13536 | 37261 ft | 476 kts | 130° |
| 2026-04-27 00:20 | 43.20791 | 28.20641 | 37262 ft | 476 kts | 130° |
| 2026-04-27 00:21 | 43.16668 | 28.27726 | 37265 ft | 475 kts | 130° |
| 2026-04-27 00:21 | 43.12562 | 28.34784 | 37264 ft | 474 kts | 130° |
| 2026-04-27 00:22 | 43.08483 | 28.41781 | 37259 ft | 473 kts | 130° |
| 2026-04-27 00:22 | 43.04369 | 28.48807 | 37259 ft | 472 kts | 130° |
| 2026-04-27 00:23 | 43.00251 | 28.55801 | 37256 ft | 472 kts | 130° |
| 2026-04-27 00:23 | 42.96139 | 28.62781 | 37254 ft | 471 kts | 130° |
| 2026-04-27 00:24 | 42.92022 | 28.69748 | 37250 ft | 471 kts | 130° |
| 2026-04-27 00:24 | 42.87908 | 28.76703 | 37248 ft | 471 kts | 130° |
| 2026-04-27 00:25 | 42.83797 | 28.83640 | 37234 ft | 470 kts | 130° |
| 2026-04-27 00:25 | 42.79686 | 28.90546 | 37230 ft | 469 kts | 130° |
| 2026-04-27 00:26 | 42.75576 | 28.97442 | 37227 ft | 469 kts | 130° |
| 2026-04-27 00:26 | 42.71466 | 29.04331 | 37223 ft | 468 kts | 130° |
| 2026-04-27 00:27 | 42.67361 | 29.11191 | 37211 ft | 468 kts | 130° |
| 2026-04-27 00:27 | 42.63257 | 29.18043 | 37209 ft | 467 kts | 130° |
| 2026-04-27 00:28 | 42.59139 | 29.24880 | 37206 ft | 467 kts | 130° |
| 2026-04-27 00:28 | 42.55048 | 29.31655 | 37200 ft | 467 kts | 130° |
| 2026-04-27 00:29 | 42.50932 | 29.38463 | 37199 ft | 466 kts | 130° |
| 2026-04-27 00:29 | 42.46813 | 29.45254 | 37196 ft | 466 kts | 130° |
| 2026-04-27 00:30 | 42.42698 | 29.52025 | 37185 ft | 465 kts | 130° |
| 2026-04-27 00:30 | 42.38595 | 29.58812 | 37185 ft | 465 kts | 128° |
| 2026-04-27 00:31 | 42.35402 | 29.66382 | 37185 ft | 464 kts | 110° |
| 2026-04-27 00:31 | 42.33312 | 29.74635 | 37173 ft | 464 kts | 108° |
| 2026-04-27 00:32 | 42.31220 | 29.82867 | 37175 ft | 463 kts | 109° |
| 2026-04-27 00:32 | 42.29127 | 29.91048 | 37171 ft | 463 kts | 108° |
| 2026-04-27 00:33 | 42.27028 | 29.99270 | 37159 ft | 463 kts | 109° |
| 2026-04-27 00:33 | 42.24921 | 30.07476 | 37150 ft | 463 kts | 109° |
| 2026-04-27 00:34 | 42.22804 | 30.15676 | 37099 ft | 462 kts | 109° |
| 2026-04-27 00:34 | 42.20688 | 30.23853 | 37080 ft | 461 kts | 109° |
| 2026-04-27 00:35 | 42.18568 | 30.32022 | 37070 ft | 462 kts | 109° |
| 2026-04-27 00:35 | 42.16442 | 30.40191 | 37064 ft | 462 kts | 109° |
| 2026-04-27 00:36 | 42.14311 | 30.48356 | 37058 ft | 462 kts | 109° |
| 2026-04-27 00:36 | 42.12187 | 30.56477 | 37052 ft | 463 kts | 109° |
| 2026-04-27 00:37 | 42.10040 | 30.64660 | 37046 ft | 463 kts | 109° |
| 2026-04-27 00:37 | 42.07882 | 30.72850 | 37043 ft | 464 kts | 109° |
| 2026-04-27 00:38 | 42.05721 | 30.81037 | 37037 ft | 464 kts | 109° |
| 2026-04-27 00:38 | 42.03547 | 30.89223 | 37031 ft | 465 kts | 110° |
| 2026-04-27 00:39 | 42.01559 | 30.97479 | 37027 ft | 464 kts | 101° |
| 2026-04-27 00:39 | 42.01229 | 31.06110 | 37023 ft | 462 kts | 82° |
| 2026-04-27 00:40 | 42.02686 | 31.14478 | 37013 ft | 460 kts | 72° |
| 2026-04-27 00:40 | 42.04452 | 31.22756 | 37006 ft | 460 kts | 72° |
| 2026-04-27 00:41 | 42.06197 | 31.31051 | 37004 ft | 460 kts | 72° |
| 2026-04-27 00:41 | 42.07936 | 31.39342 | 37005 ft | 461 kts | 72° |
| 2026-04-27 00:42 | 42.09385 | 31.46237 | 37007 ft | 461 kts | 72° |
| 2026-04-27 00:42 | 42.11120 | 31.54539 | 37008 ft | 460 kts | 73° |
| 2026-04-27 00:43 | 42.12849 | 31.62832 | 37010 ft | 460 kts | 73° |
| 2026-04-27 00:43 | 42.14584 | 31.71133 | 37011 ft | 459 kts | 73° |
| 2026-04-27 00:44 | 42.16304 | 31.79434 | 37011 ft | 459 kts | 73° |
| 2026-04-27 00:44 | 42.18005 | 31.87724 | 37008 ft | 458 kts | 73° |
| 2026-04-27 00:45 | 42.19699 | 31.95957 | 37008 ft | 458 kts | 73° |
| 2026-04-27 00:45 | 42.21399 | 32.04238 | 37010 ft | 458 kts | 73° |
| 2026-04-27 00:46 | 42.23082 | 32.12525 | 37008 ft | 458 kts | 73° |
| 2026-04-27 00:46 | 42.24755 | 32.20816 | 37008 ft | 458 kts | 73° |
| 2026-04-27 00:47 | 42.26571 | 32.29053 | 37006 ft | 458 kts | 71° |
| 2026-04-27 00:47 | 42.28522 | 32.37242 | 37005 ft | 458 kts | 71° |
| 2026-04-27 00:48 | 42.30452 | 32.45452 | 37006 ft | 460 kts | 71° |
| 2026-04-27 00:48 | 42.32283 | 32.53731 | 37006 ft | 461 kts | 76° |
| 2026-04-27 00:49 | 42.32823 | 32.62354 | 37005 ft | 463 kts | 93° |
| 2026-04-27 00:49 | 42.31938 | 32.70972 | 37008 ft | 464 kts | 98° |
| 2026-04-27 00:50 | 42.30477 | 32.83911 | 37012 ft | 465 kts | 98° |
| 2026-04-27 00:51 | 42.29496 | 32.92566 | 37016 ft | 466 kts | 98° |
| 2026-04-27 00:51 | 42.28499 | 33.01213 | 37022 ft | 466 kts | 98° |
| 2026-04-27 00:52 | 42.27486 | 33.09857 | 37033 ft | 466 kts | 99° |
| 2026-04-27 00:52 | 42.26469 | 33.18498 | 37044 ft | 466 kts | 98° |
| 2026-04-27 00:53 | 42.25452 | 33.27136 | 37048 ft | 466 kts | 98° |
| 2026-04-27 00:53 | 42.24443 | 33.35772 | 37050 ft | 465 kts | 99° |
| 2026-04-27 00:54 | 42.23416 | 33.44388 | 37052 ft | 464 kts | 99° |
| 2026-04-27 00:54 | 42.22375 | 33.52975 | 37059 ft | 464 kts | 99° |
| 2026-04-27 00:55 | 42.21344 | 33.61512 | 37060 ft | 463 kts | 99° |
| 2026-04-27 00:55 | 42.20309 | 33.70078 | 37060 ft | 462 kts | 99° |
| 2026-04-27 00:56 | 42.19260 | 33.78630 | 37062 ft | 462 kts | 99° |
| 2026-04-27 00:56 | 42.18207 | 33.87158 | 37059 ft | 461 kts | 99° |
| 2026-04-27 00:57 | 42.17156 | 33.95700 | 37052 ft | 460 kts | 99° |
| 2026-04-27 00:57 | 42.16103 | 34.04207 | 37051 ft | 460 kts | 99° |
| 2026-04-27 00:58 | 42.15038 | 34.12713 | 37048 ft | 460 kts | 99° |
| 2026-04-27 00:58 | 42.13963 | 34.21204 | 37047 ft | 460 kts | 99° |
| 2026-04-27 00:59 | 42.12883 | 34.29700 | 37034 ft | 460 kts | 99° |
| 2026-04-27 00:59 | 42.11791 | 34.38208 | 37029 ft | 461 kts | 99° |
| 2026-04-27 01:00 | 42.10690 | 34.46708 | 37025 ft | 461 kts | 100° |
| 2026-04-27 01:00 | 42.09532 | 34.55207 | 37019 ft | 462 kts | 100° |
| 2026-04-27 01:01 | 42.08336 | 34.63698 | 37013 ft | 462 kts | 101° |
| 2026-04-27 01:01 | 42.07134 | 34.72210 | 37005 ft | 463 kts | 100° |
| 2026-04-27 01:02 | 42.05938 | 34.80738 | 37001 ft | 464 kts | 101° |
| 2026-04-27 01:02 | 42.04741 | 34.89279 | 37000 ft | 465 kts | 100° |
| 2026-04-27 01:03 | 42.03597 | 34.97848 | 36997 ft | 466 kts | 100° |
| 2026-04-27 01:03 | 42.02465 | 35.06442 | 36996 ft | 467 kts | 98° |
| 2026-04-27 01:04 | 42.01915 | 35.15132 | 36994 ft | 467 kts | 94° |
| 2026-04-27 01:04 | 42.01460 | 35.23798 | 36994 ft | 468 kts | 94° |
| 2026-04-27 01:05 | 42.00990 | 35.32541 | 36999 ft | 468 kts | 94° |
| 2026-04-27 01:05 | 42.00509 | 35.41280 | 37006 ft | 469 kts | 94° |
| 2026-04-27 01:06 | 42.00027 | 35.50015 | 37013 ft | 469 kts | 94° |
| 2026-04-27 01:06 | 41.99541 | 35.58704 | 37018 ft | 469 kts | 94° |
| 2026-04-27 01:07 | 41.99048 | 35.67440 | 37025 ft | 468 kts | 94° |
| 2026-04-27 01:07 | 41.98547 | 35.76174 | 37026 ft | 468 kts | 94° |
| 2026-04-27 01:08 | 41.98036 | 35.84900 | 37027 ft | 468 kts | 94° |
| 2026-04-27 01:08 | 41.97518 | 35.93618 | 37029 ft | 468 kts | 94° |
| 2026-04-27 01:09 | 41.97008 | 36.02277 | 37028 ft | 467 kts | 94° |
| 2026-04-27 01:09 | 41.96480 | 36.10976 | 37026 ft | 467 kts | 94° |
| 2026-04-27 01:10 | 41.95942 | 36.19660 | 37026 ft | 468 kts | 94° |
| 2026-04-27 01:10 | 41.95403 | 36.28406 | 37035 ft | 468 kts | 94° |
| 2026-04-27 01:11 | 41.94860 | 36.37118 | 37038 ft | 468 kts | 94° |
| 2026-04-27 01:11 | 41.94312 | 36.45829 | 37044 ft | 468 kts | 94° |
| 2026-04-27 01:12 | 41.93751 | 36.54542 | 37050 ft | 468 kts | 95° |
| 2026-04-27 01:12 | 41.93177 | 36.63254 | 37051 ft | 468 kts | 95° |
| 2026-04-27 01:13 | 41.92600 | 36.71966 | 37051 ft | 468 kts | 95° |
| 2026-04-27 01:13 | 41.92014 | 36.80678 | 37053 ft | 468 kts | 95° |
| 2026-04-27 01:14 | 41.91424 | 36.89381 | 37050 ft | 468 kts | 95° |
| 2026-04-27 01:14 | 41.90837 | 36.98030 | 37049 ft | 469 kts | 95° |
| 2026-04-27 01:15 | 41.89663 | 37.06616 | 37050 ft | 468 kts | 109° |
| 2026-04-27 01:15 | 41.87201 | 37.14685 | 37055 ft | 467 kts | 114° |
| 2026-04-27 01:16 | 41.84671 | 37.22719 | 37052 ft | 468 kts | 114° |
| 2026-04-27 01:16 | 41.82138 | 37.30754 | 37053 ft | 468 kts | 114° |
| 2026-04-27 01:17 | 41.79600 | 37.38790 | 37053 ft | 469 kts | 114° |
| 2026-04-27 01:17 | 41.77045 | 37.46831 | 37053 ft | 469 kts | 114° |
| 2026-04-27 01:18 | 41.74482 | 37.54866 | 37056 ft | 469 kts | 114° |
| 2026-04-27 01:18 | 41.71941 | 37.62840 | 37053 ft | 469 kts | 114° |
| 2026-04-27 01:19 | 41.69379 | 37.70860 | 37051 ft | 469 kts | 114° |
| 2026-04-27 01:19 | 41.66796 | 37.78880 | 37049 ft | 469 kts | 114° |
| 2026-04-27 01:19 | 41.65503 | 37.82889 | 36905 ft | 470 kts | 114° |
| 2026-04-27 01:20 | 41.64211 | 37.86896 | 36206 ft | 472 kts | 114° |
| 2026-04-27 01:20 | 41.62901 | 37.90958 | 35290 ft | 476 kts | 114° |
| 2026-04-27 01:20 | 41.61576 | 37.95052 | 34296 ft | 482 kts | 114° |
| 2026-04-27 01:20 | 41.60240 | 37.99176 | 33375 ft | 484 kts | 114° |
| 2026-04-27 01:21 | 41.58895 | 38.03327 | 32253 ft | 490 kts | 114° |
| 2026-04-27 01:21 | 41.57529 | 38.07534 | 31070 ft | 497 kts | 114° |
| 2026-04-27 01:21 | 41.56152 | 38.11766 | 29972 ft | 499 kts | 114° |
| 2026-04-27 01:21 | 41.54762 | 38.16032 | 28977 ft | 499 kts | 114° |
| 2026-04-27 01:22 | 41.53374 | 38.20283 | 27812 ft | 501 kts | 114° |
| 2026-04-27 01:22 | 41.51977 | 38.24563 | 26582 ft | 504 kts | 114° |
| 2026-04-27 01:22 | 41.50586 | 38.28818 | 25288 ft | 507 kts | 115° |
| 2026-04-27 01:22 | 41.49173 | 38.33138 | 23946 ft | 509 kts | 115° |
| 2026-04-27 01:23 | 41.47766 | 38.37437 | 23065 ft | 501 kts | 115° |
| 2026-04-27 01:23 | 41.46380 | 38.41663 | 22198 ft | 494 kts | 115° |
| 2026-04-27 01:23 | 41.45012 | 38.45830 | 21335 ft | 487 kts | 115° |
| 2026-04-27 01:23 | 41.43661 | 38.49931 | 20487 ft | 480 kts | 115° |
| 2026-04-27 01:24 | 41.42324 | 38.53976 | 19651 ft | 474 kts | 115° |
| 2026-04-27 01:24 | 41.40999 | 38.57974 | 18842 ft | 468 kts | 115° |
| 2026-04-27 01:24 | 41.39691 | 38.61913 | 18042 ft | 462 kts | 116° |
| 2026-04-27 01:24 | 41.38418 | 38.65745 | 17262 ft | 456 kts | 116° |
| 2026-04-27 01:25 | 41.37141 | 38.69588 | 16490 ft | 451 kts | 116° |
| 2026-04-27 01:25 | 41.35874 | 38.73392 | 15721 ft | 446 kts | 116° |
| 2026-04-27 01:25 | 41.34624 | 38.77141 | 14961 ft | 440 kts | 115° |
| 2026-04-27 01:25 | 41.33390 | 38.80844 | 14177 ft | 435 kts | 115° |
| 2026-04-27 01:26 | 41.32178 | 38.84521 | 13440 ft | 430 kts | 115° |
| 2026-04-27 01:26 | 41.31017 | 38.88085 | 13258 ft | 411 kts | 115° |
| 2026-04-27 01:26 | 41.29906 | 38.91505 | 13128 ft | 393 kts | 115° |
| 2026-04-27 01:26 | 41.28845 | 38.94767 | 13001 ft | 376 kts | 115° |
| 2026-04-27 01:27 | 41.27829 | 38.97881 | 12878 ft | 359 kts | 115° |
| 2026-04-27 01:27 | 41.26851 | 39.00877 | 12734 ft | 346 kts | 115° |
| 2026-04-27 01:27 | 41.25911 | 39.03746 | 12617 ft | 332 kts | 115° |
| 2026-04-27 01:27 | 41.25003 | 39.06508 | 12448 ft | 322 kts | 116° |
| 2026-04-27 01:28 | 41.24109 | 39.09205 | 12142 ft | 318 kts | 115° |
| 2026-04-27 01:28 | 41.23223 | 39.11886 | 11806 ft | 316 kts | 115° |
| 2026-04-27 01:28 | 41.22342 | 39.14551 | 11457 ft | 313 kts | 115° |
| 2026-04-27 01:28 | 41.21441 | 39.17173 | 11090 ft | 311 kts | 120° |
| 2026-04-27 01:29 | 41.20712 | 39.18798 | 10849 ft | 309 kts | 123° |
| 2026-04-27 01:29 | 41.19234 | 39.22010 | 10354 ft | 307 kts | 123° |
| 2026-04-27 01:29 | 41.18127 | 39.24417 | 9990 ft | 303 kts | 122° |
| 2026-04-27 01:29 | 41.17035 | 39.26801 | 9595 ft | 302 kts | 122° |
| 2026-04-27 01:30 | 41.16300 | 39.28404 | 9346 ft | 300 kts | 122° |
| 2026-04-27 01:30 | 41.15219 | 39.30760 | 8969 ft | 298 kts | 122° |
| 2026-04-27 01:30 | 41.14145 | 39.33096 | 8563 ft | 296 kts | 122° |
| 2026-04-27 01:30 | 41.13078 | 39.35415 | 8163 ft | 294 kts | 122° |
| 2026-04-27 01:31 | 41.12129 | 39.37798 | 7749 ft | 292 kts | 114° |
| 2026-04-27 01:31 | 41.11311 | 39.40255 | 7345 ft | 290 kts | 114° |
| 2026-04-27 01:31 | 41.10507 | 39.42655 | 6695 ft | 288 kts | 114° |
| 2026-04-27 01:31 | 41.09694 | 39.45075 | 5926 ft | 286 kts | 114° |
| 2026-04-27 01:32 | 41.08884 | 39.47487 | 5161 ft | 285 kts | 114° |
| 2026-04-27 01:32 | 41.08108 | 39.49893 | 4408 ft | 282 kts | 111° |
| 2026-04-27 01:32 | 41.07451 | 39.52314 | 3833 ft | 272 kts | 105° |
| 2026-04-27 01:32 | 41.06961 | 39.54635 | 3629 ft | 250 kts | 108° |
| 2026-04-27 01:33 | 41.06380 | 39.56715 | 3535 ft | 233 kts | 112° |
| 2026-04-27 01:33 | 41.05777 | 39.58667 | 3365 ft | 227 kts | 112° |
| 2026-04-27 01:33 | 41.05175 | 39.60594 | 3108 ft | 225 kts | 113° |
| 2026-04-27 01:33 | 41.04578 | 39.62490 | 2814 ft | 219 kts | 112° |
| 2026-04-27 01:34 | 41.04027 | 39.64302 | 2490 ft | 211 kts | 113° |
| 2026-04-27 01:34 | 41.03488 | 39.66053 | 2208 ft | 197 kts | 113° |
| 2026-04-27 01:34 | 41.02994 | 39.67675 | 1927 ft | 184 kts | 114° |
| 2026-04-27 01:34 | 41.02531 | 39.69179 | 1665 ft | 169 kts | 114° |
| 2026-04-27 01:35 | 41.02100 | 39.70580 | 1376 ft | 158 kts | 115° |
| 2026-04-27 01:35 | 41.01711 | 39.71851 | 1134 ft | 142 kts | 115° |
| 2026-04-27 01:35 | 41.01348 | 39.73026 | 912 ft | 136 kts | 115° |
| 2026-04-27 01:35 | 41.00996 | 39.74181 | 724 ft | 135 kts | 115° |
| 2026-04-27 01:36 | 41.00641 | 39.75327 | 555 ft | 134 kts | 114° |
| 2026-04-27 01:36 | 41.00285 | 39.76472 | 334 ft | 135 kts | 114° |
| 2026-04-27 01:36 | 40.99927 | 39.77620 | 138 ft | 134 kts | 114° |
| 2026-04-27 01:36 | 40.99605 | 39.78653 | 105 ft | 101 kts | 112° |
| 2026-04-27 01:37 | 40.99407 | 39.79294 | 106 ft | 52 kts | 112° |
| 2026-04-27 01:37 | 40.99306 | 39.79617 | 109 ft | 34 kts | 112° |
| 2026-04-27 01:37 | 40.99226 | 39.79883 | 106 ft | 30 kts | 112° |
| 2026-04-27 01:37 | 40.99166 | 39.80078 | 104 ft | 16 kts | 110° |
| 2026-04-27 01:38 | 40.99128 | 39.80198 | 104 ft | 16 kts | 121° |
| 2026-04-27 01:38 | 40.99074 | 39.80295 | 103 ft | 11 kts | 68° |
| 2026-04-27 01:38 | 40.99121 | 39.80241 | 103 ft | 17 kts | 287° |
| 2026-04-27 01:38 | 40.99170 | 39.80070 | 105 ft | 22 kts | 291° |
| 2026-04-27 01:39 | 40.99230 | 39.79871 | 106 ft | 25 kts | 292° |
| 2026-04-27 01:39 | 40.99297 | 39.79647 | 108 ft | 27 kts | 291° |
| 2026-04-27 01:39 | 40.99365 | 39.79428 | 106 ft | 13 kts | 293° |
| 2026-04-27 01:39 | 40.99389 | 39.79329 | 107 ft | 11 kts | 273° |
| 2026-04-27 01:40 | 40.99366 | 39.79228 | 104 ft | 15 kts | 248° |
| 2026-04-27 01:40 | 40.99334 | 39.79062 | 104 ft | 20 kts | 276° |
| 2026-04-27 01:40 | 40.99377 | 39.78918 | 112 ft | 14 kts | 292° |
| 2026-04-27 01:40 | 40.99425 | 39.78764 | 114 ft | 20 kts | 292° |
| 2026-04-27 01:41 | 40.99482 | 39.78581 | 112 ft | 22 kts | 291° |
| 2026-04-27 01:41 | 40.99528 | 39.78431 | 114 ft | 16 kts | 293° |
| 2026-04-27 01:41 | 40.99559 | 39.78328 | 115 ft | 4 kts | 280° |
| 2026-04-27 01:41 | 40.99535 | 39.78292 | 114 ft | 6 kts | 205° |
| 2026-04-27 01:42 | 40.99508 | 39.78277 | 114 ft | 0 kts | 202° |